Riverton, Indiana
Current Conditions -  °F | °C
As of 2:35 PM on Thursday 30 Oct 2014 (Local Time) from KRSV Reporting Station
Clear Clear  
Wind Chill: 14°   Ceiling: Unl
Heat Index: 14°   Visibility: 10mi
Dew Point:   Wind: 7mph
Humidity: 47%   Direction: 130°SE
Pressure: 30.11"   Gusts: NA
Location:  39.0138°N, 87.523°W
Report Text: KRSV 301835Z AUTO 13006KT 10SM CLR 14/03 A3011 RMK AO2 T01380025
Loading
Personal Weather Stations






























Interactive Weather Map
Tropical Storm Tracking
New forecast layout! Learn more

10-Day Weather Forecast

Advertisements
Track Severe Weather on mobile